sensor_id;sensor_type;location;lat;lon;timestamp;P1;durP1;ratioP1;P2;durP2;ratioP2
10717;SDS011;13513;42.700;23.124;2023-07-31T00:01:34;4.05;;;3.65;;
10717;SDS011;13513;42.700;23.124;2023-07-31T00:04:01;4.25;;;3.85;;
10717;SDS011;13513;42.700;23.124;2023-07-31T00:06:29;4.10;;;3.72;;
10717;SDS011;13513;42.700;23.124;2023-07-31T00:08:56;7.75;;;4.00;;
10717;SDS011;13513;42.700;23.124;2023-07-31T00:11:24;4.28;;;3.92;;
10717;SDS011;13513;42.700;23.124;2023-07-31T00:13:52;5.05;;;4.55;;
10717;SDS011;13513;42.700;23.124;2023-07-31T00:16:20;6.55;;;4.78;;
10717;SDS011;13513;42.700;23.124;2023-07-31T00:18:47;5.15;;;4.75;;
10717;SDS011;13513;42.700;23.124;2023-07-31T00:21:15;5.47;;;4.97;;
10717;SDS011;13513;42.700;23.124;2023-07-31T00:23:42;5.53;;;5.03;;
10717;SDS011;13513;42.700;23.124;2023-07-31T00:26:10;6.22;;;5.55;;
10717;SDS011;13513;42.700;23.124;2023-07-31T00:28:37;6.35;;;5.78;;
10717;SDS011;13513;42.700;23.124;2023-07-31T00:31:05;6.67;;;5.85;;
10717;SDS011;13513;42.700;23.124;2023-07-31T00:33:34;7.20;;;6.50;;
10717;SDS011;13513;42.700;23.124;2023-07-31T00:36:02;7.00;;;6.40;;
10717;SDS011;13513;42.700;23.124;2023-07-31T00:38:29;8.38;;;7.00;;
10717;SDS011;13513;42.700;23.124;2023-07-31T00:40:57;7.62;;;6.60;;
10717;SDS011;13513;42.700;23.124;2023-07-31T00:43:24;8.10;;;6.75;;
10717;SDS011;13513;42.700;23.124;2023-07-31T00:45:52;7.80;;;7.00;;
10717;SDS011;13513;42.700;23.124;2023-07-31T00:48:19;8.20;;;6.55;;
10717;SDS011;13513;42.700;23.124;2023-07-31T00:50:47;7.30;;;6.05;;
10717;SDS011;13513;42.700;23.124;2023-07-31T00:53:15;7.70;;;7.10;;
10717;SDS011;13513;42.700;23.124;2023-07-31T00:55:43;9.23;;;8.40;;
10717;SDS011;13513;42.700;23.124;2023-07-31T00:58:11;10.93;;;9.83;;
10717;SDS011;13513;42.700;23.124;2023-07-31T01:00:38;11.83;;;10.60;;
10717;SDS011;13513;42.700;23.124;2023-07-31T01:03:05;12.20;;;11.03;;
10717;SDS011;13513;42.700;23.124;2023-07-31T01:05:43;14.00;;;12.60;;
10717;SDS011;13513;42.700;23.124;2023-07-31T01:08:15;15.25;;;13.65;;
10717;SDS011;13513;42.700;23.124;2023-07-31T01:10:55;15.98;;;14.47;;
10717;SDS011;13513;42.700;23.124;2023-07-31T01:13:22;16.55;;;15.05;;
10717;SDS011;13513;42.700;23.124;2023-07-31T01:15:49;17.67;;;15.90;;
10717;SDS011;13513;42.700;23.124;2023-07-31T01:18:17;18.60;;;15.58;;
10717;SDS011;13513;42.700;23.124;2023-07-31T01:20:44;17.37;;;15.60;;
10717;SDS011;13513;42.700;23.124;2023-07-31T01:26:11;17.37;;;15.68;;
10717;SDS011;13513;42.700;23.124;2023-07-31T01:31:19;15.80;;;13.98;;
10717;SDS011;13513;42.700;23.124;2023-07-31T01:33:48;16.30;;;14.80;;
10717;SDS011;13513;42.700;23.124;2023-07-31T01:36:17;17.25;;;15.53;;
10717;SDS011;13513;42.700;23.124;2023-07-31T01:38:45;17.37;;;15.78;;
10717;SDS011;13513;42.700;23.124;2023-07-31T01:41:12;17.75;;;15.85;;
10717;SDS011;13513;42.700;23.124;2023-07-31T01:43:39;17.30;;;15.70;;
10717;SDS011;13513;42.700;23.124;2023-07-31T01:46:07;17.35;;;15.48;;
10717;SDS011;13513;42.700;23.124;2023-07-31T01:48:34;18.50;;;16.60;;
10717;SDS011;13513;42.700;23.124;2023-07-31T01:51:02;18.67;;;16.67;;
10717;SDS011;13513;42.700;23.124;2023-07-31T01:53:30;18.40;;;16.60;;
10717;SDS011;13513;42.700;23.124;2023-07-31T01:55:59;18.87;;;16.40;;
10717;SDS011;13513;42.700;23.124;2023-07-31T01:58:26;17.92;;;16.23;;
10717;SDS011;13513;42.700;23.124;2023-07-31T02:00:53;21.20;;;16.20;;
10717;SDS011;13513;42.700;23.124;2023-07-31T02:03:21;17.82;;;16.02;;
10717;SDS011;13513;42.700;23.124;2023-07-31T02:05:49;16.85;;;15.10;;
10717;SDS011;13513;42.700;23.124;2023-07-31T02:08:17;17.65;;;15.95;;
10717;SDS011;13513;42.700;23.124;2023-07-31T02:10:44;17.10;;;15.43;;
10717;SDS011;13513;42.700;23.124;2023-07-31T02:13:12;18.40;;;16.60;;
10717;SDS011;13513;42.700;23.124;2023-07-31T02:15:39;19.37;;;17.37;;
10717;SDS011;13513;42.700;23.124;2023-07-31T02:18:06;17.92;;;16.15;;
10717;SDS011;13513;42.700;23.124;2023-07-31T02:20:34;18.62;;;16.82;;
10717;SDS011;13513;42.700;23.124;2023-07-31T02:23:02;19.30;;;17.40;;
10717;SDS011;13513;42.700;23.124;2023-07-31T02:25:29;19.42;;;17.50;;
10717;SDS011;13513;42.700;23.124;2023-07-31T02:27:56;20.15;;;18.02;;
10717;SDS011;13513;42.700;23.124;2023-07-31T02:30:24;21.15;;;18.98;;
10717;SDS011;13513;42.700;23.124;2023-07-31T02:32:51;20.08;;;17.95;;
10717;SDS011;13513;42.700;23.124;2023-07-31T02:35:19;18.73;;;16.90;;
10717;SDS011;13513;42.700;23.124;2023-07-31T02:37:46;19.10;;;17.10;;
10717;SDS011;13513;42.700;23.124;2023-07-31T02:40:14;18.62;;;16.73;;
10717;SDS011;13513;42.700;23.124;2023-07-31T02:42:41;19.62;;;17.73;;
10717;SDS011;13513;42.700;23.124;2023-07-31T02:45:09;18.62;;;16.67;;
10717;SDS011;13513;42.700;23.124;2023-07-31T02:47:36;20.05;;;18.10;;
10717;SDS011;13513;42.700;23.124;2023-07-31T02:50:04;19.10;;;16.90;;
10717;SDS011;13513;42.700;23.124;2023-07-31T02:52:31;19.48;;;17.57;;
10717;SDS011;13513;42.700;23.124;2023-07-31T02:54:59;17.65;;;15.98;;
10717;SDS011;13513;42.700;23.124;2023-07-31T02:57:26;18.42;;;16.55;;
10717;SDS011;13513;42.700;23.124;2023-07-31T02:59:54;18.40;;;16.60;;
10717;SDS011;13513;42.700;23.124;2023-07-31T03:02:21;18.57;;;16.80;;
10717;SDS011;13513;42.700;23.124;2023-07-31T03:04:49;20.77;;;18.05;;
10717;SDS011;13513;42.700;23.124;2023-07-31T03:07:16;19.42;;;17.25;;
10717;SDS011;13513;42.700;23.124;2023-07-31T03:09:43;20.52;;;18.25;;
10717;SDS011;13513;42.700;23.124;2023-07-31T03:12:11;21.10;;;18.87;;
10717;SDS011;13513;42.700;23.124;2023-07-31T03:14:38;20.32;;;18.37;;
10717;SDS011;13513;42.700;23.124;2023-07-31T03:17:06;22.50;;;20.25;;
10717;SDS011;13513;42.700;23.124;2023-07-31T03:19:34;19.85;;;17.85;;
10717;SDS011;13513;42.700;23.124;2023-07-31T03:22:01;23.25;;;20.85;;
10717;SDS011;13513;42.700;23.124;2023-07-31T03:24:29;23.25;;;20.65;;
10717;SDS011;13513;42.700;23.124;2023-07-31T03:26:56;24.50;;;22.00;;
10717;SDS011;13513;42.700;23.124;2023-07-31T03:29:23;23.10;;;20.65;;
10717;SDS011;13513;42.700;23.124;2023-07-31T03:31:51;25.23;;;22.50;;
10717;SDS011;13513;42.700;23.124;2023-07-31T03:34:18;24.00;;;20.72;;
10717;SDS011;13513;42.700;23.124;2023-07-31T03:36:46;26.60;;;22.07;;
10717;SDS011;13513;42.700;23.124;2023-07-31T03:39:13;26.95;;;22.60;;
10717;SDS011;13513;42.700;23.124;2023-07-31T03:41:41;24.50;;;21.97;;
10717;SDS011;13513;42.700;23.124;2023-07-31T03:44:08;25.57;;;22.25;;
10717;SDS011;13513;42.700;23.124;2023-07-31T03:46:35;27.58;;;21.97;;
10717;SDS011;13513;42.700;23.124;2023-07-31T03:49:03;25.50;;;21.20;;
10717;SDS011;13513;42.700;23.124;2023-07-31T03:51:30;23.87;;;21.37;;
10717;SDS011;13513;42.700;23.124;2023-07-31T03:53:58;22.50;;;20.10;;
10717;SDS011;13513;42.700;23.124;2023-07-31T03:56:25;23.15;;;20.68;;
10717;SDS011;13513;42.700;23.124;2023-07-31T03:58:53;25.65;;;22.25;;
10717;SDS011;13513;42.700;23.124;2023-07-31T04:01:20;22.15;;;19.85;;
10717;SDS011;13513;42.700;23.124;2023-07-31T04:03:47;23.18;;;20.68;;
10717;SDS011;13513;42.700;23.124;2023-07-31T04:06:15;23.52;;;21.02;;
10717;SDS011;13513;42.700;23.124;2023-07-31T04:08:45;23.27;;;20.57;;
10717;SDS011;13513;42.700;23.124;2023-07-31T04:11:12;24.32;;;21.73;;
10717;SDS011;13513;42.700;23.124;2023-07-31T04:13:40;23.12;;;20.72;;
10717;SDS011;13513;42.700;23.124;2023-07-31T04:16:07;22.75;;;20.20;;
10717;SDS011;13513;42.700;23.124;2023-07-31T04:18:35;22.73;;;20.27;;
10717;SDS011;13513;42.700;23.124;2023-07-31T04:21:02;19.95;;;17.87;;
10717;SDS011;13513;42.700;23.124;2023-07-31T04:23:29;22.25;;;19.95;;
10717;SDS011;13513;42.700;23.124;2023-07-31T04:25:57;22.87;;;20.45;;
10717;SDS011;13513;42.700;23.124;2023-07-31T04:28:24;21.97;;;19.82;;
10717;SDS011;13513;42.700;23.124;2023-07-31T04:30:52;21.70;;;19.40;;
10717;SDS011;13513;42.700;23.124;2023-07-31T04:33:19;23.92;;;20.15;;
10717;SDS011;13513;42.700;23.124;2023-07-31T04:35:50;22.60;;;19.60;;
10717;SDS011;13513;42.700;23.124;2023-07-31T04:38:23;25.20;;;19.30;;
10717;SDS011;13513;42.700;23.124;2023-07-31T04:40:47;20.37;;;18.37;;
10717;SDS011;13513;42.700;23.124;2023-07-31T04:43:15;19.37;;;17.42;;
10717;SDS011;13513;42.700;23.124;2023-07-31T04:45:45;21.52;;;17.48;;
10717;SDS011;13513;42.700;23.124;2023-07-31T04:48:16;17.42;;;15.72;;
10717;SDS011;13513;42.700;23.124;2023-07-31T04:50:43;20.27;;;15.65;;
10717;SDS011;13513;42.700;23.124;2023-07-31T04:53:10;17.15;;;15.45;;
10717;SDS011;13513;42.700;23.124;2023-07-31T04:55:38;16.52;;;14.28;;
10717;SDS011;13513;42.700;23.124;2023-07-31T04:58:05;15.60;;;14.13;;
10717;SDS011;13513;42.700;23.124;2023-07-31T05:00:33;14.33;;;12.93;;
10717;SDS011;13513;42.700;23.124;2023-07-31T05:03:00;14.47;;;13.08;;
10717;SDS011;13513;42.700;23.124;2023-07-31T05:05:28;15.23;;;13.08;;
10717;SDS011;13513;42.700;23.124;2023-07-31T05:07:55;13.55;;;12.45;;
10717;SDS011;13513;42.700;23.124;2023-07-31T05:10:22;15.18;;;12.13;;
10717;SDS011;13513;42.700;23.124;2023-07-31T05:12:50;12.28;;;11.10;;
10717;SDS011;13513;42.700;23.124;2023-07-31T05:15:17;10.88;;;9.93;;
10717;SDS011;13513;42.700;23.124;2023-07-31T05:17:45;10.53;;;9.60;;
10717;SDS011;13513;42.700;23.124;2023-07-31T05:20:12;11.10;;;9.78;;
10717;SDS011;13513;42.700;23.124;2023-07-31T05:22:40;11.28;;;10.18;;
10717;SDS011;13513;42.700;23.124;2023-07-31T05:25:08;10.58;;;9.58;;
10717;SDS011;13513;42.700;23.124;2023-07-31T05:27:35;10.23;;;8.85;;
10717;SDS011;13513;42.700;23.124;2023-07-31T05:30:02;9.53;;;6.50;;
10717;SDS011;13513;42.700;23.124;2023-07-31T05:32:30;7.00;;;6.40;;
10717;SDS011;13513;42.700;23.124;2023-07-31T05:34:58;7.42;;;6.25;;
10717;SDS011;13513;42.700;23.124;2023-07-31T05:37:26;8.63;;;5.83;;
10717;SDS011;13513;42.700;23.124;2023-07-31T05:39:53;6.17;;;5.58;;
10717;SDS011;13513;42.700;23.124;2023-07-31T05:42:20;6.78;;;6.15;;
10717;SDS011;13513;42.700;23.124;2023-07-31T05:44:48;7.15;;;4.83;;
10717;SDS011;13513;42.700;23.124;2023-07-31T05:47:15;5.92;;;5.37;;
10717;SDS011;13513;42.700;23.124;2023-07-31T05:49:43;5.53;;;5.03;;
10717;SDS011;13513;42.700;23.124;2023-07-31T05:52:10;7.70;;;4.75;;
10717;SDS011;13513;42.700;23.124;2023-07-31T05:54:38;5.47;;;4.75;;
10717;SDS011;13513;42.700;23.124;2023-07-31T05:57:05;4.92;;;4.53;;
10717;SDS011;13513;42.700;23.124;2023-07-31T05:59:33;6.50;;;5.90;;
10717;SDS011;13513;42.700;23.124;2023-07-31T06:02:00;4.30;;;3.90;;
10717;SDS011;13513;42.700;23.124;2023-07-31T06:04:28;6.00;;;4.00;;
10717;SDS011;13513;42.700;23.124;2023-07-31T06:06:55;4.30;;;4.00;;
10717;SDS011;13513;42.700;23.124;2023-07-31T06:09:23;4.37;;;3.90;;
10717;SDS011;13513;42.700;23.124;2023-07-31T06:11:51;4.37;;;3.98;;
10717;SDS011;13513;42.700;23.124;2023-07-31T06:14:19;3.80;;;3.50;;
10717;SDS011;13513;42.700;23.124;2023-07-31T06:16:46;6.03;;;3.95;;
10717;SDS011;13513;42.700;23.124;2023-07-31T06:19:14;3.02;;;2.83;;
10717;SDS011;13513;42.700;23.124;2023-07-31T06:21:41;4.10;;;3.12;;
10717;SDS011;13513;42.700;23.124;2023-07-31T06:24:09;3.45;;;3.12;;
10717;SDS011;13513;42.700;23.124;2023-07-31T06:26:37;3.35;;;2.80;;
10717;SDS011;13513;42.700;23.124;2023-07-31T06:29:05;2.70;;;2.50;;
10717;SDS011;13513;42.700;23.124;2023-07-31T06:31:32;2.95;;;2.62;;
10717;SDS011;13513;42.700;23.124;2023-07-31T06:34:00;4.08;;;2.45;;
10717;SDS011;13513;42.700;23.124;2023-07-31T06:36:27;2.60;;;2.40;;
10717;SDS011;13513;42.700;23.124;2023-07-31T06:38:54;4.42;;;2.40;;
10717;SDS011;13513;42.700;23.124;2023-07-31T06:41:22;4.05;;;2.40;;
10717;SDS011;13513;42.700;23.124;2023-07-31T06:43:49;2.35;;;2.15;;
10717;SDS011;13513;42.700;23.124;2023-07-31T06:46:17;4.00;;;2.05;;
10717;SDS011;13513;42.700;23.124;2023-07-31T06:48:45;2.58;;;2.37;;
10717;SDS011;13513;42.700;23.124;2023-07-31T06:51:12;4.45;;;2.60;;
10717;SDS011;13513;42.700;23.124;2023-07-31T06:53:40;2.33;;;2.10;;
10717;SDS011;13513;42.700;23.124;2023-07-31T06:56:09;3.65;;;2.20;;
10717;SDS011;13513;42.700;23.124;2023-07-31T06:58:36;2.45;;;2.10;;
10717;SDS011;13513;42.700;23.124;2023-07-31T07:01:04;2.30;;;2.10;;
10717;SDS011;13513;42.700;23.124;2023-07-31T07:03:31;4.00;;;2.50;;
10717;SDS011;13513;42.700;23.124;2023-07-31T07:05:59;3.55;;;2.20;;
10717;SDS011;13513;42.700;23.124;2023-07-31T07:08:27;2.95;;;2.05;;
10717;SDS011;13513;42.700;23.124;2023-07-31T07:10:54;8.23;;;2.45;;
10717;SDS011;13513;42.700;23.124;2023-07-31T07:13:22;2.90;;;2.10;;
10717;SDS011;13513;42.700;23.124;2023-07-31T07:15:49;3.37;;;2.10;;
10717;SDS011;13513;42.700;23.124;2023-07-31T07:18:17;5.30;;;1.90;;
10717;SDS011;13513;42.700;23.124;2023-07-31T07:20:53;9.00;;;1.87;;
10717;SDS011;13513;42.700;23.124;2023-07-31T07:23:17;2.30;;;2.05;;
10717;SDS011;13513;42.700;23.124;2023-07-31T07:25:45;2.33;;;2.15;;
10717;SDS011;13513;42.700;23.124;2023-07-31T07:28:13;2.30;;;2.10;;
10717;SDS011;13513;42.700;23.124;2023-07-31T07:30:41;1.65;;;1.55;;
10717;SDS011;13513;42.700;23.124;2023-07-31T07:33:08;6.53;;;2.20;;
10717;SDS011;13513;42.700;23.124;2023-07-31T07:35:37;1.85;;;1.60;;
10717;SDS011;13513;42.700;23.124;2023-07-31T07:38:04;2.30;;;1.82;;
10717;SDS011;13513;42.700;23.124;2023-07-31T07:40:32;1.92;;;1.82;;
10717;SDS011;13513;42.700;23.124;2023-07-31T07:42:59;2.83;;;1.87;;
10717;SDS011;13513;42.700;23.124;2023-07-31T07:45:26;1.98;;;1.77;;
10717;SDS011;13513;42.700;23.124;2023-07-31T07:47:54;14.73;;;13.30;;
10717;SDS011;13513;42.700;23.124;2023-07-31T07:50:21;14.20;;;12.10;;
10717;SDS011;13513;42.700;23.124;2023-07-31T07:52:49;2.08;;;1.95;;
10717;SDS011;13513;42.700;23.124;2023-07-31T07:55:16;2.20;;;2.00;;
10717;SDS011;13513;42.700;23.124;2023-07-31T07:57:44;2.00;;;1.90;;
10717;SDS011;13513;42.700;23.124;2023-07-31T08:00:12;3.02;;;1.90;;
10717;SDS011;13513;42.700;23.124;2023-07-31T08:02:39;1.87;;;1.77;;
10717;SDS011;13513;42.700;23.124;2023-07-31T08:05:07;2.90;;;1.72;;
10717;SDS011;13513;42.700;23.124;2023-07-31T08:07:35;3.27;;;1.70;;
10717;SDS011;13513;42.700;23.124;2023-07-31T08:10:02;2.55;;;2.02;;
10717;SDS011;13513;42.700;23.124;2023-07-31T08:12:30;2.30;;;1.80;;
10717;SDS011;13513;42.700;23.124;2023-07-31T08:14:57;3.98;;;2.00;;
10717;SDS011;13513;42.700;23.124;2023-07-31T08:17:25;3.87;;;1.90;;
10717;SDS011;13513;42.700;23.124;2023-07-31T08:19:53;1.60;;;1.50;;
10717;SDS011;13513;42.700;23.124;2023-07-31T08:22:21;2.00;;;1.90;;
10717;SDS011;13513;42.700;23.124;2023-07-31T08:24:49;2.60;;;1.98;;
10717;SDS011;13513;42.700;23.124;2023-07-31T08:27:16;1.80;;;1.65;;
10717;SDS011;13513;42.700;23.124;2023-07-31T08:29:44;2.33;;;1.55;;
10717;SDS011;13513;42.700;23.124;2023-07-31T08:32:11;5.20;;;1.57;;
10717;SDS011;13513;42.700;23.124;2023-07-31T08:34:38;2.65;;;1.50;;
10717;SDS011;13513;42.700;23.124;2023-07-31T08:37:07;3.20;;;1.50;;
10717;SDS011;13513;42.700;23.124;2023-07-31T08:39:34;16.48;;;14.83;;
10717;SDS011;13513;42.700;23.124;2023-07-31T08:42:04;13.00;;;11.70;;
10717;SDS011;13513;42.700;23.124;2023-07-31T08:44:33;2.50;;;1.50;;
10717;SDS011;13513;42.700;23.124;2023-07-31T08:47:01;1.67;;;1.57;;
10717;SDS011;13513;42.700;23.124;2023-07-31T08:49:29;1.92;;;1.75;;
10717;SDS011;13513;42.700;23.124;2023-07-31T08:51:58;1.77;;;1.67;;
10717;SDS011;13513;42.700;23.124;2023-07-31T08:54:25;1.85;;;1.75;;
10717;SDS011;13513;42.700;23.124;2023-07-31T08:56:54;2.00;;;1.60;;
10717;SDS011;13513;42.700;23.124;2023-07-31T08:59:26;1.90;;;1.70;;
10717;SDS011;13513;42.700;23.124;2023-07-31T09:01:59;2.35;;;1.70;;
10717;SDS011;13513;42.700;23.124;2023-07-31T09:04:31;1.80;;;1.70;;
10717;SDS011;13513;42.700;23.124;2023-07-31T09:07:02;2.20;;;2.00;;
10717;SDS011;13513;42.700;23.124;2023-07-31T09:09:31;1.92;;;1.82;;
10717;SDS011;13513;42.700;23.124;2023-07-31T09:11:59;9.30;;;3.77;;
10717;SDS011;13513;42.700;23.124;2023-07-31T09:14:27;2.25;;;1.70;;
10717;SDS011;13513;42.700;23.124;2023-07-31T09:16:55;3.55;;;1.60;;
10717;SDS011;13513;42.700;23.124;2023-07-31T09:19:35;1.87;;;1.70;;
10717;SDS011;13513;42.700;23.124;2023-07-31T09:22:06;2.12;;;1.80;;
10717;SDS011;13513;42.700;23.124;2023-07-31T09:24:34;2.12;;;2.02;;
10717;SDS011;13513;42.700;23.124;2023-07-31T09:27:01;1.60;;;1.50;;
10717;SDS011;13513;42.700;23.124;2023-07-31T09:29:29;2.08;;;1.70;;
10717;SDS011;13513;42.700;23.124;2023-07-31T09:31:56;1.77;;;1.65;;
10717;SDS011;13513;42.700;23.124;2023-07-31T09:34:36;9.58;;;6.60;;
10717;SDS011;13513;42.700;23.124;2023-07-31T09:37:05;1.95;;;1.65;;
10717;SDS011;13513;42.700;23.124;2023-07-31T09:39:32;1.82;;;1.65;;
10717;SDS011;13513;42.700;23.124;2023-07-31T09:42:03;3.42;;;1.77;;
10717;SDS011;13513;42.700;23.124;2023-07-31T09:44:40;1.70;;;1.60;;
10717;SDS011;13513;42.700;23.124;2023-07-31T09:47:06;1.82;;;1.72;;
10717;SDS011;13513;42.700;23.124;2023-07-31T09:49:35;3.33;;;1.70;;
10717;SDS011;13513;42.700;23.124;2023-07-31T09:52:02;1.87;;;1.77;;
10717;SDS011;13513;42.700;23.124;2023-07-31T09:54:35;3.87;;;1.87;;
10717;SDS011;13513;42.700;23.124;2023-07-31T09:57:02;2.00;;;1.90;;
10717;SDS011;13513;42.700;23.124;2023-07-31T09:59:30;2.37;;;1.87;;
10717;SDS011;13513;42.700;23.124;2023-07-31T10:01:57;1.82;;;1.60;;
10717;SDS011;13513;42.700;23.124;2023-07-31T10:04:26;1.92;;;1.75;;
10717;SDS011;13513;42.700;23.124;2023-07-31T10:06:54;1.70;;;1.60;;
10717;SDS011;13513;42.700;23.124;2023-07-31T10:09:23;1.85;;;1.75;;
10717;SDS011;13513;42.700;23.124;2023-07-31T10:11:56;56.60;;;50.90;;
10717;SDS011;13513;42.700;23.124;2023-07-31T10:14:25;2.30;;;1.95;;
10717;SDS011;13513;42.700;23.124;2023-07-31T10:16:54;2.17;;;1.95;;
10717;SDS011;13513;42.700;23.124;2023-07-31T10:19:23;2.27;;;1.87;;
10717;SDS011;13513;42.700;23.124;2023-07-31T10:21:52;2.83;;;1.90;;
10717;SDS011;13513;42.700;23.124;2023-07-31T10:24:22;2.75;;;1.60;;
10717;SDS011;13513;42.700;23.124;2023-07-31T10:26:51;4.03;;;1.95;;
10717;SDS011;13513;42.700;23.124;2023-07-31T10:29:19;1.70;;;1.60;;
10717;SDS011;13513;42.700;23.124;2023-07-31T10:31:49;2.67;;;1.60;;
10717;SDS011;13513;42.700;23.124;2023-07-31T10:34:18;1.75;;;1.65;;
10717;SDS011;13513;42.700;23.124;2023-07-31T10:36:45;3.37;;;1.60;;
10717;SDS011;13513;42.700;23.124;2023-07-31T10:39:33;1.57;;;1.40;;
10717;SDS011;13513;42.700;23.124;2023-07-31T10:42:11;1.50;;;1.40;;
10717;SDS011;13513;42.700;23.124;2023-07-31T10:44:49;2.05;;;1.87;;
10717;SDS011;13513;42.700;23.124;2023-07-31T10:47:17;1.57;;;1.47;;
10717;SDS011;13513;42.700;23.124;2023-07-31T10:49:44;3.40;;;1.60;;
10717;SDS011;13513;42.700;23.124;2023-07-31T10:52:13;1.95;;;1.67;;
10717;SDS011;13513;42.700;23.124;2023-07-31T10:54:42;2.42;;;1.40;;
10717;SDS011;13513;42.700;23.124;2023-07-31T10:57:24;1.50;;;1.40;;
10717;SDS011;13513;42.700;23.124;2023-07-31T10:59:50;2.12;;;1.45;;
10717;SDS011;13513;42.700;23.124;2023-07-31T11:02:24;2.22;;;1.70;;
10717;SDS011;13513;42.700;23.124;2023-07-31T11:05:16;2.33;;;1.70;;
10717;SDS011;13513;42.700;23.124;2023-07-31T11:07:48;1.70;;;1.60;;
10717;SDS011;13513;42.700;23.124;2023-07-31T11:10:17;1.90;;;1.80;;
10717;SDS011;13513;42.700;23.124;2023-07-31T11:12:45;2.00;;;1.90;;
10717;SDS011;13513;42.700;23.124;2023-07-31T11:15:13;1.80;;;1.70;;
10717;SDS011;13513;42.700;23.124;2023-07-31T11:17:40;2.60;;;1.75;;
10717;SDS011;13513;42.700;23.124;2023-07-31T11:20:08;3.58;;;1.90;;
10717;SDS011;13513;42.700;23.124;2023-07-31T11:22:35;3.40;;;2.17;;
10717;SDS011;13513;42.700;23.124;2023-07-31T11:25:03;2.08;;;1.70;;
10717;SDS011;13513;42.700;23.124;2023-07-31T11:27:31;3.30;;;2.10;;
10717;SDS011;13513;42.700;23.124;2023-07-31T11:30:01;2.50;;;2.30;;
10717;SDS011;13513;42.700;23.124;2023-07-31T11:32:29;2.77;;;2.58;;
10717;SDS011;13513;42.700;23.124;2023-07-31T11:34:57;3.05;;;2.25;;
10717;SDS011;13513;42.700;23.124;2023-07-31T11:37:25;3.67;;;2.60;;
10717;SDS011;13513;42.700;23.124;2023-07-31T11:40:00;3.00;;;2.80;;
10717;SDS011;13513;42.700;23.124;2023-07-31T11:42:29;3.47;;;3.10;;
10717;SDS011;13513;42.700;23.124;2023-07-31T11:44:56;6.15;;;3.70;;
10717;SDS011;13513;42.700;23.124;2023-07-31T11:47:25;3.67;;;3.37;;
10717;SDS011;13513;42.700;23.124;2023-07-31T11:49:52;3.25;;;3.05;;
10717;SDS011;13513;42.700;23.124;2023-07-31T11:52:21;3.83;;;3.45;;
10717;SDS011;13513;42.700;23.124;2023-07-31T11:54:49;4.47;;;4.00;;
10717;SDS011;13513;42.700;23.124;2023-07-31T11:57:17;3.87;;;3.58;;
10717;SDS011;13513;42.700;23.124;2023-07-31T11:59:46;3.30;;;3.10;;
10717;SDS011;13513;42.700;23.124;2023-07-31T12:02:13;5.78;;;5.28;;
10717;SDS011;13513;42.700;23.124;2023-07-31T12:04:42;5.72;;;5.33;;
10717;SDS011;13513;42.700;23.124;2023-07-31T12:07:09;5.37;;;4.90;;
10717;SDS011;13513;42.700;23.124;2023-07-31T12:09:38;4.87;;;4.47;;
10717;SDS011;13513;42.700;23.124;2023-07-31T12:12:10;6.08;;;4.87;;
10717;SDS011;13513;42.700;23.124;2023-07-31T12:14:41;4.67;;;4.37;;
10717;SDS011;13513;42.700;23.124;2023-07-31T12:17:08;4.20;;;3.90;;
10717;SDS011;13513;42.700;23.124;2023-07-31T12:19:36;4.50;;;4.20;;
10717;SDS011;13513;42.700;23.124;2023-07-31T12:22:10;4.97;;;4.45;;
10717;SDS011;13513;42.700;23.124;2023-07-31T12:24:42;5.08;;;4.60;;
10717;SDS011;13513;42.700;23.124;2023-07-31T12:27:11;5.40;;;5.00;;
10717;SDS011;13513;42.700;23.124;2023-07-31T12:29:41;5.10;;;4.70;;
10717;SDS011;13513;42.700;23.124;2023-07-31T12:32:20;6.42;;;5.17;;
10717;SDS011;13513;42.700;23.124;2023-07-31T12:34:48;5.90;;;5.40;;
10717;SDS011;13513;42.700;23.124;2023-07-31T12:37:15;6.28;;;5.67;;
10717;SDS011;13513;42.700;23.124;2023-07-31T12:39:43;7.97;;;5.95;;
10717;SDS011;13513;42.700;23.124;2023-07-31T12:42:10;5.72;;;5.22;;
10717;SDS011;13513;42.700;23.124;2023-07-31T12:44:38;6.37;;;5.78;;
10717;SDS011;13513;42.700;23.124;2023-07-31T12:47:05;5.70;;;5.20;;
10717;SDS011;13513;42.700;23.124;2023-07-31T12:49:33;5.28;;;4.87;;
10717;SDS011;13513;42.700;23.124;2023-07-31T12:52:00;6.20;;;5.70;;
10717;SDS011;13513;42.700;23.124;2023-07-31T12:54:28;6.40;;;5.55;;
10717;SDS011;13513;42.700;23.124;2023-07-31T12:56:55;5.85;;;5.45;;
10717;SDS011;13513;42.700;23.124;2023-07-31T12:59:22;5.53;;;5.12;;
10717;SDS011;13513;42.700;23.124;2023-07-31T13:01:50;5.37;;;4.97;;
10717;SDS011;13513;42.700;23.124;2023-07-31T13:04:17;5.70;;;5.15;;
10717;SDS011;13513;42.700;23.124;2023-07-31T13:06:45;5.00;;;4.60;;
10717;SDS011;13513;42.700;23.124;2023-07-31T13:09:12;5.20;;;4.80;;
10717;SDS011;13513;42.700;23.124;2023-07-31T13:11:41;5.55;;;4.58;;
10717;SDS011;13513;42.700;23.124;2023-07-31T13:14:09;5.22;;;4.72;;
10717;SDS011;13513;42.700;23.124;2023-07-31T13:16:36;5.20;;;4.83;;
10717;SDS011;13513;42.700;23.124;2023-07-31T13:19:04;5.00;;;4.60;;
10717;SDS011;13513;42.700;23.124;2023-07-31T13:21:31;4.70;;;4.30;;
10717;SDS011;13513;42.700;23.124;2023-07-31T13:24:00;4.22;;;3.92;;
10717;SDS011;13513;42.700;23.124;2023-07-31T13:26:28;5.05;;;4.10;;
10717;SDS011;13513;42.700;23.124;2023-07-31T13:28:55;4.47;;;4.17;;
10717;SDS011;13513;42.700;23.124;2023-07-31T13:31:22;6.47;;;4.20;;
10717;SDS011;13513;42.700;23.124;2023-07-31T13:33:50;4.47;;;4.17;;
10717;SDS011;13513;42.700;23.124;2023-07-31T13:36:17;4.35;;;3.95;;
10717;SDS011;13513;42.700;23.124;2023-07-31T13:38:45;4.72;;;3.52;;
10717;SDS011;13513;42.700;23.124;2023-07-31T13:41:12;3.80;;;3.50;;
10717;SDS011;13513;42.700;23.124;2023-07-31T13:43:40;4.20;;;3.42;;
10717;SDS011;13513;42.700;23.124;2023-07-31T13:46:07;3.40;;;3.10;;
10717;SDS011;13513;42.700;23.124;2023-07-31T13:48:36;3.10;;;2.83;;
10717;SDS011;13513;42.700;23.124;2023-07-31T13:51:04;3.60;;;3.30;;
10717;SDS011;13513;42.700;23.124;2023-07-31T13:53:31;3.50;;;3.17;;
10717;SDS011;13513;42.700;23.124;2023-07-31T13:55:58;4.10;;;3.60;;
10717;SDS011;13513;42.700;23.124;2023-07-31T13:58:26;5.30;;;3.00;;
10717;SDS011;13513;42.700;23.124;2023-07-31T14:00:54;2.87;;;2.67;;
10717;SDS011;13513;42.700;23.124;2023-07-31T14:03:21;3.30;;;3.00;;
10717;SDS011;13513;42.700;23.124;2023-07-31T14:05:48;3.10;;;2.90;;
10717;SDS011;13513;42.700;23.124;2023-07-31T14:08:16;2.98;;;2.77;;
10717;SDS011;13513;42.700;23.124;2023-07-31T14:10:44;3.83;;;3.08;;
10717;SDS011;13513;42.700;23.124;2023-07-31T14:13:11;3.45;;;3.20;;
10717;SDS011;13513;42.700;23.124;2023-07-31T14:15:41;3.00;;;2.80;;
10717;SDS011;13513;42.700;23.124;2023-07-31T14:18:09;3.58;;;2.90;;
10717;SDS011;13513;42.700;23.124;2023-07-31T14:20:36;4.40;;;3.20;;
10717;SDS011;13513;42.700;23.124;2023-07-31T14:23:04;4.33;;;3.52;;
10717;SDS011;13513;42.700;23.124;2023-07-31T14:25:31;3.30;;;3.00;;
10717;SDS011;13513;42.700;23.124;2023-07-31T14:27:59;3.77;;;2.92;;
10717;SDS011;13513;42.700;23.124;2023-07-31T14:30:26;3.33;;;2.75;;
10717;SDS011;13513;42.700;23.124;2023-07-31T14:32:54;3.75;;;3.02;;
10717;SDS011;13513;42.700;23.124;2023-07-31T14:35:21;3.00;;;2.80;;
10717;SDS011;13513;42.700;23.124;2023-07-31T14:37:48;2.80;;;2.60;;